sensor_id;sensor_type;location;lat;lon;timestamp;temperature;humidity
5280;DHT22;2663;53.588;10.010;2023-11-21T00:01:16;10.40;99.90
5280;DHT22;2663;53.588;10.010;2023-11-21T00:03:43;10.20;99.90
5280;DHT22;2663;53.588;10.010;2023-11-21T00:06:10;10.10;99.90
5280;DHT22;2663;53.588;10.010;2023-11-21T00:08:37;10.00;99.90
5280;DHT22;2663;53.588;10.010;2023-11-21T00:11:04;10.10;99.90
5280;DHT22;2663;53.588;10.010;2023-11-21T00:13:34;10.00;99.90
5280;DHT22;2663;53.588;10.010;2023-11-21T00:16:01;9.90;99.90
5280;DHT22;2663;53.588;10.010;2023-11-21T00:18:28;9.90;99.90
5280;DHT22;2663;53.588;10.010;2023-11-21T00:20:55;10.00;99.90
5280;DHT22;2663;53.588;10.010;2023-11-21T00:23:22;10.00;99.90
5280;DHT22;2663;53.588;10.010;2023-11-21T00:25:48;10.10;99.90
5280;DHT22;2663;53.588;10.010;2023-11-21T00:28:15;10.10;99.90
5280;DHT22;2663;53.588;10.010;2023-11-21T00:30:42;10.00;99.90
5280;DHT22;2663;53.588;10.010;2023-11-21T00:33:08;9.90;99.90
5280;DHT22;2663;53.588;10.010;2023-11-21T00:35:35;9.70;99.90
5280;DHT22;2663;53.588;10.010;2023-11-21T00:38:02;9.80;99.90
5280;DHT22;2663;53.588;10.010;2023-11-21T00:40:30;9.80;99.90
5280;DHT22;2663;53.588;10.010;2023-11-21T00:42:57;9.80;99.90
5280;DHT22;2663;53.588;10.010;2023-11-21T00:45:24;9.70;99.90
5280;DHT22;2663;53.588;10.010;2023-11-21T00:47:51;9.40;99.90
5280;DHT22;2663;53.588;10.010;2023-11-21T00:50:18;9.40;99.90
5280;DHT22;2663;53.588;10.010;2023-11-21T00:52:45;9.40;99.90
5280;DHT22;2663;53.588;10.010;2023-11-21T00:55:12;9.40;99.90
5280;DHT22;2663;53.588;10.010;2023-11-21T00:57:39;9.20;99.90
5280;DHT22;2663;53.588;10.010;2023-11-21T01:00:06;9.30;99.90
5280;DHT22;2663;53.588;10.010;2023-11-21T01:02:36;9.20;99.90
5280;DHT22;2663;53.588;10.010;2023-11-21T01:05:03;9.30;99.90
5280;DHT22;2663;53.588;10.010;2023-11-21T01:07:30;9.40;99.90
5280;DHT22;2663;53.588;10.010;2023-11-21T01:09:57;8.70;99.90
5280;DHT22;2663;53.588;10.010;2023-11-21T01:12:23;9.30;99.90
5280;DHT22;2663;53.588;10.010;2023-11-21T01:14:52;9.30;99.90
5280;DHT22;2663;53.588;10.010;2023-11-21T01:17:18;9.10;99.90
5280;DHT22;2663;53.588;10.010;2023-11-21T01:19:45;9.10;99.90
5280;DHT22;2663;53.588;10.010;2023-11-21T01:22:12;9.20;99.90
5280;DHT22;2663;53.588;10.010;2023-11-21T01:24:39;9.00;99.90
5280;DHT22;2663;53.588;10.010;2023-11-21T01:27:05;8.90;99.90
5280;DHT22;2663;53.588;10.010;2023-11-21T01:29:32;10.20;99.90
5280;DHT22;2663;53.588;10.010;2023-11-21T01:31:59;8.80;99.90
5280;DHT22;2663;53.588;10.010;2023-11-21T01:34:26;8.80;99.90
5280;DHT22;2663;53.588;10.010;2023-11-21T01:36:52;8.90;99.90
5280;DHT22;2663;53.588;10.010;2023-11-21T01:39:19;8.90;99.90
5280;DHT22;2663;53.588;10.010;2023-11-21T01:41:50;8.80;99.90
5280;DHT22;2663;53.588;10.010;2023-11-21T01:44:18;8.80;99.90
5280;DHT22;2663;53.588;10.010;2023-11-21T01:46:46;8.90;99.90
5280;DHT22;2663;53.588;10.010;2023-11-21T01:49:14;8.90;99.90
5280;DHT22;2663;53.588;10.010;2023-11-21T01:51:43;8.90;99.90
5280;DHT22;2663;53.588;10.010;2023-11-21T01:54:13;8.90;99.90
5280;DHT22;2663;53.588;10.010;2023-11-21T01:56:47;9.10;99.90
5280;DHT22;2663;53.588;10.010;2023-11-21T01:59:17;9.10;99.90
5280;DHT22;2663;53.588;10.010;2023-11-21T02:01:44;9.10;99.90
5280;DHT22;2663;53.588;10.010;2023-11-21T02:04:13;9.10;99.90
5280;DHT22;2663;53.588;10.010;2023-11-21T02:06:40;9.10;99.90
5280;DHT22;2663;53.588;10.010;2023-11-21T02:09:07;9.00;99.90
5280;DHT22;2663;53.588;10.010;2023-11-21T02:11:35;9.10;99.90
5280;DHT22;2663;53.588;10.010;2023-11-21T02:14:02;9.20;99.90
5280;DHT22;2663;53.588;10.010;2023-11-21T02:16:28;9.00;99.90
5280;DHT22;2663;53.588;10.010;2023-11-21T02:18:58;9.00;99.90
5280;DHT22;2663;53.588;10.010;2023-11-21T02:21:25;9.00;99.90
5280;DHT22;2663;53.588;10.010;2023-11-21T02:23:52;9.00;99.90
5280;DHT22;2663;53.588;10.010;2023-11-21T02:26:19;9.10;99.90
5280;DHT22;2663;53.588;10.010;2023-11-21T02:28:46;9.10;99.90
5280;DHT22;2663;53.588;10.010;2023-11-21T02:31:14;9.10;99.90
5280;DHT22;2663;53.588;10.010;2023-11-21T02:33:41;8.90;99.90
5280;DHT22;2663;53.588;10.010;2023-11-21T02:36:08;9.00;99.90
5280;DHT22;2663;53.588;10.010;2023-11-21T02:38:35;9.00;99.90
5280;DHT22;2663;53.588;10.010;2023-11-21T02:41:01;9.00;99.90
5280;DHT22;2663;53.588;10.010;2023-11-21T02:43:28;9.10;99.90
5280;DHT22;2663;53.588;10.010;2023-11-21T02:45:56;9.00;99.90
5280;DHT22;2663;53.588;10.010;2023-11-21T02:48:23;8.90;99.90
5280;DHT22;2663;53.588;10.010;2023-11-21T02:50:52;8.90;99.90
5280;DHT22;2663;53.588;10.010;2023-11-21T02:53:19;8.90;99.90
5280;DHT22;2663;53.588;10.010;2023-11-21T02:55:46;8.90;99.90
5280;DHT22;2663;53.588;10.010;2023-11-21T02:58:13;9.00;99.90
5280;DHT22;2663;53.588;10.010;2023-11-21T03:00:40;8.90;99.90
5280;DHT22;2663;53.588;10.010;2023-11-21T03:03:08;8.90;99.90
5280;DHT22;2663;53.588;10.010;2023-11-21T03:05:35;9.10;99.90
5280;DHT22;2663;53.588;10.010;2023-11-21T03:08:03;9.00;99.90
5280;DHT22;2663;53.588;10.010;2023-11-21T03:10:30;8.90;99.90
5280;DHT22;2663;53.588;10.010;2023-11-21T03:12:57;8.80;99.90
5280;DHT22;2663;53.588;10.010;2023-11-21T03:15:24;8.90;99.90
5280;DHT22;2663;53.588;10.010;2023-11-21T03:17:51;9.00;99.90
5280;DHT22;2663;53.588;10.010;2023-11-21T03:20:17;9.00;99.90
5280;DHT22;2663;53.588;10.010;2023-11-21T03:22:44;9.10;99.90
5280;DHT22;2663;53.588;10.010;2023-11-21T03:25:11;9.00;99.90
5280;DHT22;2663;53.588;10.010;2023-11-21T03:27:38;9.10;99.90
5280;DHT22;2663;53.588;10.010;2023-11-21T03:30:08;9.00;99.90
5280;DHT22;2663;53.588;10.010;2023-11-21T03:32:35;9.00;99.90
5280;DHT22;2663;53.588;10.010;2023-11-21T03:35:03;9.00;99.90
5280;DHT22;2663;53.588;10.010;2023-11-21T03:37:30;9.00;99.90
5280;DHT22;2663;53.588;10.010;2023-11-21T03:39:57;9.10;99.90
5280;DHT22;2663;53.588;10.010;2023-11-21T03:42:24;9.00;99.90
5280;DHT22;2663;53.588;10.010;2023-11-21T03:44:53;8.90;99.90
5280;DHT22;2663;53.588;10.010;2023-11-21T03:47:20;9.00;99.90
5280;DHT22;2663;53.588;10.010;2023-11-21T03:49:46;9.10;99.90
5280;DHT22;2663;53.588;10.010;2023-11-21T03:52:13;9.10;99.90
5280;DHT22;2663;53.588;10.010;2023-11-21T03:54:40;9.00;99.90
5280;DHT22;2663;53.588;10.010;2023-11-21T03:57:07;9.00;99.90
5280;DHT22;2663;53.588;10.010;2023-11-21T03:59:34;9.00;99.90
5280;DHT22;2663;53.588;10.010;2023-11-21T04:02:00;8.90;99.90
5280;DHT22;2663;53.588;10.010;2023-11-21T04:04:27;8.90;99.90
5280;DHT22;2663;53.588;10.010;2023-11-21T04:06:54;9.00;99.90
5280;DHT22;2663;53.588;10.010;2023-11-21T04:09:21;9.10;99.90
5280;DHT22;2663;53.588;10.010;2023-11-21T04:11:53;9.00;99.90
5280;DHT22;2663;53.588;10.010;2023-11-21T04:14:20;9.00;99.90
5280;DHT22;2663;53.588;10.010;2023-11-21T04:16:46;9.00;99.90
5280;DHT22;2663;53.588;10.010;2023-11-21T04:19:14;9.10;99.90
5280;DHT22;2663;53.588;10.010;2023-11-21T04:21:43;9.00;99.90
5280;DHT22;2663;53.588;10.010;2023-11-21T04:24:10;9.10;99.90
5280;DHT22;2663;53.588;10.010;2023-11-21T04:26:37;9.20;99.90
5280;DHT22;2663;53.588;10.010;2023-11-21T04:29:04;9.00;99.90
5280;DHT22;2663;53.588;10.010;2023-11-21T04:31:31;8.90;99.90
5280;DHT22;2663;53.588;10.010;2023-11-21T04:33:58;8.90;99.90
5280;DHT22;2663;53.588;10.010;2023-11-21T04:36:25;9.00;99.90
5280;DHT22;2663;53.588;10.010;2023-11-21T04:38:52;9.10;99.90
5280;DHT22;2663;53.588;10.010;2023-11-21T04:41:18;9.00;99.90
5280;DHT22;2663;53.588;10.010;2023-11-21T04:43:45;8.80;99.90
5280;DHT22;2663;53.588;10.010;2023-11-21T04:46:12;8.80;99.90
5280;DHT22;2663;53.588;10.010;2023-11-21T04:48:39;8.90;99.90
5280;DHT22;2663;53.588;10.010;2023-11-21T04:51:06;8.90;99.90
5280;DHT22;2663;53.588;10.010;2023-11-21T04:53:33;8.90;99.90
5280;DHT22;2663;53.588;10.010;2023-11-21T04:56:01;9.00;99.90
5280;DHT22;2663;53.588;10.010;2023-11-21T04:58:27;9.00;99.90
5280;DHT22;2663;53.588;10.010;2023-11-21T05:00:54;9.00;99.90
5280;DHT22;2663;53.588;10.010;2023-11-21T05:03:21;9.00;99.90
5280;DHT22;2663;53.588;10.010;2023-11-21T05:05:50;9.10;99.90
5280;DHT22;2663;53.588;10.010;2023-11-21T05:08:17;9.00;99.90
5280;DHT22;2663;53.588;10.010;2023-11-21T05:10:45;8.90;99.90
5280;DHT22;2663;53.588;10.010;2023-11-21T05:13:12;8.90;99.90
5280;DHT22;2663;53.588;10.010;2023-11-21T05:15:39;8.90;99.90
5280;DHT22;2663;53.588;10.010;2023-11-21T05:18:06;8.80;99.90
5280;DHT22;2663;53.588;10.010;2023-11-21T05:20:33;8.90;99.90
5280;DHT22;2663;53.588;10.010;2023-11-21T05:23:00;8.80;99.90
5280;DHT22;2663;53.588;10.010;2023-11-21T05:25:27;8.90;99.90
5280;DHT22;2663;53.588;10.010;2023-11-21T05:27:54;8.80;99.90
5280;DHT22;2663;53.588;10.010;2023-11-21T05:30:25;8.80;99.90
5280;DHT22;2663;53.588;10.010;2023-11-21T05:32:52;8.80;99.90
5280;DHT22;2663;53.588;10.010;2023-11-21T05:35:20;8.90;99.90
5280;DHT22;2663;53.588;10.010;2023-11-21T05:37:47;8.90;99.90
5280;DHT22;2663;53.588;10.010;2023-11-21T05:40:15;8.90;99.90
5280;DHT22;2663;53.588;10.010;2023-11-21T05:42:41;8.80;99.90
5280;DHT22;2663;53.588;10.010;2023-11-21T05:45:09;8.80;99.90
5280;DHT22;2663;53.588;10.010;2023-11-21T05:47:38;8.80;99.90
5280;DHT22;2663;53.588;10.010;2023-11-21T05:50:08;8.90;99.90
5280;DHT22;2663;53.588;10.010;2023-11-21T05:52:37;9.00;99.90
5280;DHT22;2663;53.588;10.010;2023-11-21T05:55:04;9.00;99.90
5280;DHT22;2663;53.588;10.010;2023-11-21T05:57:35;9.00;99.90
5280;DHT22;2663;53.588;10.010;2023-11-21T06:00:06;9.10;99.90
5280;DHT22;2663;53.588;10.010;2023-11-21T06:02:45;9.00;99.90
5280;DHT22;2663;53.588;10.010;2023-11-21T06:05:12;9.00;99.90
5280;DHT22;2663;53.588;10.010;2023-11-21T06:07:38;9.00;99.90
5280;DHT22;2663;53.588;10.010;2023-11-21T06:10:07;8.90;99.90
5280;DHT22;2663;53.588;10.010;2023-11-21T06:12:38;8.90;99.90
5280;DHT22;2663;53.588;10.010;2023-11-21T06:15:07;8.90;99.90
5280;DHT22;2663;53.588;10.010;2023-11-21T06:17:35;7.20;99.90
5280;DHT22;2663;53.588;10.010;2023-11-21T06:20:07;10.10;99.90
5280;DHT22;2663;53.588;10.010;2023-11-21T06:22:45;8.90;99.90
5280;DHT22;2663;53.588;10.010;2023-11-21T06:25:13;8.90;99.90
5280;DHT22;2663;53.588;10.010;2023-11-21T06:27:45;8.90;99.90
5280;DHT22;2663;53.588;10.010;2023-11-21T06:30:13;9.10;99.90
5280;DHT22;2663;53.588;10.010;2023-11-21T06:32:41;9.30;99.90
5280;DHT22;2663;53.588;10.010;2023-11-21T06:35:08;10.00;99.90
5280;DHT22;2663;53.588;10.010;2023-11-21T06:37:37;9.50;99.90
5280;DHT22;2663;53.588;10.010;2023-11-21T06:40:04;9.50;99.90
5280;DHT22;2663;53.588;10.010;2023-11-21T06:42:31;7.70;99.90
5280;DHT22;2663;53.588;10.010;2023-11-21T06:44:58;9.40;99.90
5280;DHT22;2663;53.588;10.010;2023-11-21T06:47:25;9.30;99.90
5280;DHT22;2663;53.588;10.010;2023-11-21T06:49:52;9.40;99.90
5280;DHT22;2663;53.588;10.010;2023-11-21T06:52:20;9.30;99.90
5280;DHT22;2663;53.588;10.010;2023-11-21T06:54:47;9.20;99.90
5280;DHT22;2663;53.588;10.010;2023-11-21T06:57:16;9.30;99.90
5280;DHT22;2663;53.588;10.010;2023-11-21T06:59:43;9.60;99.90
5280;DHT22;2663;53.588;10.010;2023-11-21T07:02:10;9.90;99.90
5280;DHT22;2663;53.588;10.010;2023-11-21T07:04:37;9.90;99.90
5280;DHT22;2663;53.588;10.010;2023-11-21T07:07:04;9.80;99.90
5280;DHT22;2663;53.588;10.010;2023-11-21T07:09:31;9.70;99.90
5280;DHT22;2663;53.588;10.010;2023-11-21T07:11:57;9.60;99.90
5280;DHT22;2663;53.588;10.010;2023-11-21T07:14:24;9.40;99.90
5280;DHT22;2663;53.588;10.010;2023-11-21T07:16:51;9.50;99.90
5280;DHT22;2663;53.588;10.010;2023-11-21T07:19:19;9.70;99.90
5280;DHT22;2663;53.588;10.010;2023-11-21T07:21:46;9.70;99.90
5280;DHT22;2663;53.588;10.010;2023-11-21T07:24:14;9.50;99.90
5280;DHT22;2663;53.588;10.010;2023-11-21T07:26:40;9.40;99.90
5280;DHT22;2663;53.588;10.010;2023-11-21T07:29:07;9.30;99.90
5280;DHT22;2663;53.588;10.010;2023-11-21T07:31:34;9.20;99.90
5280;DHT22;2663;53.588;10.010;2023-11-21T07:34:01;9.20;99.90
5280;DHT22;2663;53.588;10.010;2023-11-21T07:36:27;9.30;99.90
5280;DHT22;2663;53.588;10.010;2023-11-21T07:38:54;9.90;99.90
5280;DHT22;2663;53.588;10.010;2023-11-21T07:41:21;9.10;99.90
5280;DHT22;2663;53.588;10.010;2023-11-21T07:43:57;9.20;99.90
5280;DHT22;2663;53.588;10.010;2023-11-21T07:46:24;9.10;99.90
5280;DHT22;2663;53.588;10.010;2023-11-21T07:48:53;9.10;99.90
5280;DHT22;2663;53.588;10.010;2023-11-21T07:51:20;9.10;99.90
5280;DHT22;2663;53.588;10.010;2023-11-21T07:53:47;9.00;99.90
5280;DHT22;2663;53.588;10.010;2023-11-21T07:56:13;9.10;99.90
5280;DHT22;2663;53.588;10.010;2023-11-21T07:58:40;9.10;99.90
5280;DHT22;2663;53.588;10.010;2023-11-21T08:01:07;9.10;99.90
5280;DHT22;2663;53.588;10.010;2023-11-21T08:03:34;9.00;99.90
5280;DHT22;2663;53.588;10.010;2023-11-21T08:06:01;9.10;99.90
5280;DHT22;2663;53.588;10.010;2023-11-21T08:08:30;9.10;99.90
5280;DHT22;2663;53.588;10.010;2023-11-21T08:10:57;9.10;99.90
5280;DHT22;2663;53.588;10.010;2023-11-21T08:13:28;9.00;99.90
5280;DHT22;2663;53.588;10.010;2023-11-21T08:15:57;9.10;99.90
5280;DHT22;2663;53.588;10.010;2023-11-21T08:18:29;9.00;99.90
5280;DHT22;2663;53.588;10.010;2023-11-21T08:20:56;8.90;99.90
5280;DHT22;2663;53.588;10.010;2023-11-21T08:23:24;8.90;99.90
5280;DHT22;2663;53.588;10.010;2023-11-21T08:25:54;8.90;99.90
5280;DHT22;2663;53.588;10.010;2023-11-21T08:28:21;9.00;99.90
5280;DHT22;2663;53.588;10.010;2023-11-21T08:30:53;9.00;99.90
5280;DHT22;2663;53.588;10.010;2023-11-21T08:33:20;8.90;99.90
5280;DHT22;2663;53.588;10.010;2023-11-21T08:35:48;9.00;99.90
5280;DHT22;2663;53.588;10.010;2023-11-21T08:38:15;9.10;99.90
5280;DHT22;2663;53.588;10.010;2023-11-21T08:40:41;9.10;99.90
5280;DHT22;2663;53.588;10.010;2023-11-21T08:43:08;9.00;99.90
5280;DHT22;2663;53.588;10.010;2023-11-21T08:45:35;9.00;99.90
5280;DHT22;2663;53.588;10.010;2023-11-21T08:48:02;8.90;99.90
5280;DHT22;2663;53.588;10.010;2023-11-21T08:50:29;8.90;99.90
5280;DHT22;2663;53.588;10.010;2023-11-21T08:52:56;9.00;99.90
5280;DHT22;2663;53.588;10.010;2023-11-21T08:55:22;9.00;99.90
5280;DHT22;2663;53.588;10.010;2023-11-21T08:57:49;9.00;99.90
5280;DHT22;2663;53.588;10.010;2023-11-21T09:00:17;9.00;99.90
5280;DHT22;2663;53.588;10.010;2023-11-21T09:02:45;9.00;99.90
5280;DHT22;2663;53.588;10.010;2023-11-21T09:05:13;9.10;99.90
5280;DHT22;2663;53.588;10.010;2023-11-21T09:07:41;9.20;99.90
5280;DHT22;2663;53.588;10.010;2023-11-21T09:10:09;9.00;99.90
5280;DHT22;2663;53.588;10.010;2023-11-21T09:12:37;9.10;99.90
5280;DHT22;2663;53.588;10.010;2023-11-21T09:15:07;9.00;99.90
5280;DHT22;2663;53.588;10.010;2023-11-21T09:17:36;8.90;99.90
5280;DHT22;2663;53.588;10.010;2023-11-21T09:20:03;8.80;99.90
5280;DHT22;2663;53.588;10.010;2023-11-21T09:22:32;8.90;99.90
5280;DHT22;2663;53.588;10.010;2023-11-21T09:24:59;8.80;99.90
5280;DHT22;2663;53.588;10.010;2023-11-21T09:27:26;8.80;99.90
5280;DHT22;2663;53.588;10.010;2023-11-21T09:29:53;8.80;99.90
5280;DHT22;2663;53.588;10.010;2023-11-21T09:32:20;8.90;99.90
5280;DHT22;2663;53.588;10.010;2023-11-21T09:34:51;8.90;99.90
5280;DHT22;2663;53.588;10.010;2023-11-21T09:37:19;9.00;99.90
5280;DHT22;2663;53.588;10.010;2023-11-21T09:39:46;8.90;99.90
5280;DHT22;2663;53.588;10.010;2023-11-21T09:42:28;9.10;99.90
5280;DHT22;2663;53.588;10.010;2023-11-21T09:45:03;9.00;99.90
5280;DHT22;2663;53.588;10.010;2023-11-21T09:47:33;9.00;99.90
5280;DHT22;2663;53.588;10.010;2023-11-21T09:50:02;8.90;99.90
5280;DHT22;2663;53.588;10.010;2023-11-21T09:52:32;9.00;99.90
5280;DHT22;2663;53.588;10.010;2023-11-21T09:55:00;8.80;99.90
5280;DHT22;2663;53.588;10.010;2023-11-21T09:57:29;8.90;99.90
5280;DHT22;2663;53.588;10.010;2023-11-21T09:59:57;8.90;99.90
5280;DHT22;2663;53.588;10.010;2023-11-21T10:02:28;8.80;99.90
5280;DHT22;2663;53.588;10.010;2023-11-21T10:04:59;8.80;99.90
5280;DHT22;2663;53.588;10.010;2023-11-21T10:07:28;8.90;99.90
5280;DHT22;2663;53.588;10.010;2023-11-21T10:09:57;9.00;99.90
5280;DHT22;2663;53.588;10.010;2023-11-21T10:12:26;9.00;99.90
5280;DHT22;2663;53.588;10.010;2023-11-21T10:14:58;9.00;99.90
5280;DHT22;2663;53.588;10.010;2023-11-21T10:17:28;9.10;99.90
5280;DHT22;2663;53.588;10.010;2023-11-21T10:20:04;9.10;99.90
5280;DHT22;2663;53.588;10.010;2023-11-21T10:22:40;9.20;99.90
5280;DHT22;2663;53.588;10.010;2023-11-21T10:25:08;9.20;99.90
5280;DHT22;2663;53.588;10.010;2023-11-21T10:27:36;9.20;99.90
5280;DHT22;2663;53.588;10.010;2023-11-21T10:30:06;9.20;99.90
5280;DHT22;2663;53.588;10.010;2023-11-21T10:32:34;9.10;99.90
5280;DHT22;2663;53.588;10.010;2023-11-21T10:35:01;9.30;99.90
5280;DHT22;2663;53.588;10.010;2023-11-21T10:37:33;9.40;99.90
5280;DHT22;2663;53.588;10.010;2023-11-21T10:40:00;9.20;99.90
5280;DHT22;2663;53.588;10.010;2023-11-21T10:42:26;9.20;99.90
5280;DHT22;2663;53.588;10.010;2023-11-21T10:44:54;9.30;99.90
5280;DHT22;2663;53.588;10.010;2023-11-21T10:47:21;9.30;99.90
5280;DHT22;2663;53.588;10.010;2023-11-21T10:49:49;9.30;99.90
5280;DHT22;2663;53.588;10.010;2023-11-21T10:52:19;9.30;99.90
5280;DHT22;2663;53.588;10.010;2023-11-21T10:54:46;9.00;99.90
5280;DHT22;2663;53.588;10.010;2023-11-21T10:57:17;9.10;99.90
5280;DHT22;2663;53.588;10.010;2023-11-21T10:59:47;8.90;99.90
5280;DHT22;2663;53.588;10.010;2023-11-21T11:02:26;8.90;99.90
5280;DHT22;2663;53.588;10.010;2023-11-21T11:04:55;8.70;99.90
5280;DHT22;2663;53.588;10.010;2023-11-21T11:07:26;8.70;99.90
5280;DHT22;2663;53.588;10.010;2023-11-21T11:09:56;8.60;99.90
5280;DHT22;2663;53.588;10.010;2023-11-21T11:12:24;8.70;99.90
5280;DHT22;2663;53.588;10.010;2023-11-21T11:14:53;8.80;99.90
5280;DHT22;2663;53.588;10.010;2023-11-21T11:17:22;8.90;99.90
5280;DHT22;2663;53.588;10.010;2023-11-21T11:19:49;8.90;99.90
5280;DHT22;2663;53.588;10.010;2023-11-21T11:22:42;8.90;99.90
5280;DHT22;2663;53.588;10.010;2023-11-21T11:25:18;8.90;99.90
5280;DHT22;2663;53.588;10.010;2023-11-21T11:28:04;8.70;99.90
5280;DHT22;2663;53.588;10.010;2023-11-21T11:33:28;8.70;99.90
5280;DHT22;2663;53.588;10.010;2023-11-21T11:36:06;8.70;99.90
5280;DHT22;2663;53.588;10.010;2023-11-21T11:38:37;8.70;99.90
5280;DHT22;2663;53.588;10.010;2023-11-21T11:41:06;8.90;99.90
5280;DHT22;2663;53.588;10.010;2023-11-21T11:43:33;8.80;99.90
5280;DHT22;2663;53.588;10.010;2023-11-21T11:46:06;8.80;99.90
5280;DHT22;2663;53.588;10.010;2023-11-21T11:48:40;8.90;99.90
5280;DHT22;2663;53.588;10.010;2023-11-21T11:51:14;8.70;99.90
5280;DHT22;2663;53.588;10.010;2023-11-21T11:53:42;8.70;99.90
5280;DHT22;2663;53.588;10.010;2023-11-21T11:56:26;8.60;99.90
5280;DHT22;2663;53.588;10.010;2023-11-21T11:58:55;9.50;99.90
5280;DHT22;2663;53.588;10.010;2023-11-21T12:01:25;8.70;99.90
5280;DHT22;2663;53.588;10.010;2023-11-21T12:06:42;8.70;99.90
5280;DHT22;2663;53.588;10.010;2023-11-21T12:09:22;8.60;99.90
5280;DHT22;2663;53.588;10.010;2023-11-21T12:11:49;8.70;99.90
5280;DHT22;2663;53.588;10.010;2023-11-21T12:14:16;8.80;99.90
5280;DHT22;2663;53.588;10.010;2023-11-21T12:16:44;8.90;99.90
5280;DHT22;2663;53.588;10.010;2023-11-21T12:19:11;8.70;99.90
5280;DHT22;2663;53.588;10.010;2023-11-21T12:21:39;10.10;99.90
5280;DHT22;2663;53.588;10.010;2023-11-21T12:24:10;8.60;99.90
5280;DHT22;2663;53.588;10.010;2023-11-21T12:26:41;8.60;99.90
5280;DHT22;2663;53.588;10.010;2023-11-21T12:29:07;8.70;99.90
5280;DHT22;2663;53.588;10.010;2023-11-21T12:31:35;8.80;99.90
5280;DHT22;2663;53.588;10.010;2023-11-21T12:34:02;8.10;99.90
5280;DHT22;2663;53.588;10.010;2023-11-21T12:36:29;8.50;99.90
5280;DHT22;2663;53.588;10.010;2023-11-21T12:38:56;8.50;99.90
5280;DHT22;2663;53.588;10.010;2023-11-21T12:41:23;8.70;99.90
5280;DHT22;2663;53.588;10.010;2023-11-21T12:43:50;8.70;99.90
5280;DHT22;2663;53.588;10.010;2023-11-21T12:46:17;8.60;99.90
5280;DHT22;2663;53.588;10.010;2023-11-21T12:48:45;8.60;99.90
5280;DHT22;2663;53.588;10.010;2023-11-21T12:51:15;8.70;99.90
5280;DHT22;2663;53.588;10.010;2023-11-21T12:53:43;8.50;99.90
5280;DHT22;2663;53.588;10.010;2023-11-21T12:56:13;8.50;99.90
5280;DHT22;2663;53.588;10.010;2023-11-21T12:58:44;8.60;99.90
5280;DHT22;2663;53.588;10.010;2023-11-21T13:01:14;8.40;99.90
5280;DHT22;2663;53.588;10.010;2023-11-21T13:03:49;8.40;99.90
5280;DHT22;2663;53.588;10.010;2023-11-21T13:06:18;8.40;99.90
5280;DHT22;2663;53.588;10.010;2023-11-21T13:08:46;8.60;99.90
5280;DHT22;2663;53.588;10.010;2023-11-21T13:11:13;8.50;99.90
5280;DHT22;2663;53.588;10.010;2023-11-21T13:13:42;8.50;99.90
5280;DHT22;2663;53.588;10.010;2023-11-21T13:16:13;8.50;99.90
5280;DHT22;2663;53.588;10.010;2023-11-21T13:18:40;8.40;99.90
5280;DHT22;2663;53.588;10.010;2023-11-21T13:21:08;8.50;99.90
5280;DHT22;2663;53.588;10.010;2023-11-21T13:23:41;8.50;99.90
5280;DHT22;2663;53.588;10.010;2023-11-21T13:26:09;8.40;99.90
5280;DHT22;2663;53.588;10.010;2023-11-21T13:28:36;8.40;99.90
5280;DHT22;2663;53.588;10.010;2023-11-21T13:31:05;8.50;99.90
5280;DHT22;2663;53.588;10.010;2023-11-21T13:33:49;9.40;99.90
5280;DHT22;2663;53.588;10.010;2023-11-21T13:36:22;8.40;99.90
5280;DHT22;2663;53.588;10.010;2023-11-21T13:38:50;8.40;99.90
5280;DHT22;2663;53.588;10.010;2023-11-21T13:41:19;8.40;99.90
5280;DHT22;2663;53.588;10.010;2023-11-21T13:43:46;8.50;99.90
5280;DHT22;2663;53.588;10.010;2023-11-21T13:46:17;9.70;99.90
5280;DHT22;2663;53.588;10.010;2023-11-21T13:48:49;8.50;99.90
5280;DHT22;2663;53.588;10.010;2023-11-21T13:51:23;10.20;99.90
5280;DHT22;2663;53.588;10.010;2023-11-21T13:54:03;8.30;99.90
5280;DHT22;2663;53.588;10.010;2023-11-21T13:56:32;8.30;99.90
5280;DHT22;2663;53.588;10.010;2023-11-21T13:58:59;8.30;99.90
5280;DHT22;2663;53.588;10.010;2023-11-21T14:01:32;8.20;99.90
5280;DHT22;2663;53.588;10.010;2023-11-21T14:04:22;8.30;99.90
5280;DHT22;2663;53.588;10.010;2023-11-21T14:07:07;8.30;99.90
5280;DHT22;2663;53.588;10.010;2023-11-21T14:09:49;8.40;99.90
5280;DHT22;2663;53.588;10.010;2023-11-21T14:12:16;8.30;99.90
5280;DHT22;2663;53.588;10.010;2023-11-21T14:14:43;8.00;99.90
5280;DHT22;2663;53.588;10.010;2023-11-21T14:17:11;8.10;99.90
5280;DHT22;2663;53.588;10.010;2023-11-21T14:19:38;8.10;99.90
5280;DHT22;2663;53.588;10.010;2023-11-21T14:22:10;8.10;99.90
5280;DHT22;2663;53.588;10.010;2023-11-21T14:24:37;7.90;99.90
5280;DHT22;2663;53.588;10.010;2023-11-21T14:27:04;8.00;99.90
5280;DHT22;2663;53.588;10.010;2023-11-21T14:29:32;7.80;99.90
5280;DHT22;2663;53.588;10.010;2023-11-21T14:32:03;6.80;99.90
5280;DHT22;2663;53.588;10.010;2023-11-21T14:34:30;7.80;99.90
5280;DHT22;2663;53.588;10.010;2023-11-21T14:36:57;7.70;99.90
5280;DHT22;2663;53.588;10.010;2023-11-21T14:39:24;7.60;99.90
5280;DHT22;2663;53.588;10.010;2023-11-21T14:41:54;7.50;99.90
5280;DHT22;2663;53.588;10.010;2023-11-21T14:44:22;7.70;99.90
5280;DHT22;2663;53.588;10.010;2023-11-21T14:46:54;7.70;99.90
5280;DHT22;2663;53.588;10.010;2023-11-21T14:49:24;7.70;99.90
5280;DHT22;2663;53.588;10.010;2023-11-21T14:51:55;7.70;99.90
5280;DHT22;2663;53.588;10.010;2023-11-21T14:54:22;5.90;99.90
5280;DHT22;2663;53.588;10.010;2023-11-21T14:57:07;8.10;99.90
5280;DHT22;2663;53.588;10.010;2023-11-21T14:59:46;8.80;99.90
5280;DHT22;2663;53.588;10.010;2023-11-21T15:02:23;8.80;99.90
5280;DHT22;2663;53.588;10.010;2023-11-21T15:05:11;8.50;99.90
5280;DHT22;2663;53.588;10.010;2023-11-21T15:07:43;8.20;99.90
5280;DHT22;2663;53.588;10.010;2023-11-21T15:10:12;8.20;99.90
5280;DHT22;2663;53.588;10.010;2023-11-21T15:12:42;8.00;99.90
5280;DHT22;2663;53.588;10.010;2023-11-21T15:15:11;7.80;99.90
5280;DHT22;2663;53.588;10.010;2023-11-21T15:17:38;7.50;99.90
5280;DHT22;2663;53.588;10.010;2023-11-21T15:20:10;7.90;99.90
5280;DHT22;2663;53.588;10.010;2023-11-21T15:22:39;8.10;99.90
5280;DHT22;2663;53.588;10.010;2023-11-21T15:25:06;8.20;99.90
5280;DHT22;2663;53.588;10.010;2023-11-21T15:27:36;8.20;99.90
5280;DHT22;2663;53.588;10.010;2023-11-21T15:30:03;8.00;99.90
5280;DHT22;2663;53.588;10.010;2023-11-21T15:32:31;7.90;99.90
5280;DHT22;2663;53.588;10.010;2023-11-21T15:34:57;7.70;99.90
5280;DHT22;2663;53.588;10.010;2023-11-21T15:37:24;7.70;99.90
5280;DHT22;2663;53.588;10.010;2023-11-21T15:39:54;7.60;99.90
5280;DHT22;2663;53.588;10.010;2023-11-21T15:42:20;7.50;99.90
5280;DHT22;2663;53.588;10.010;2023-11-21T15:44:47;7.40;99.90
5280;DHT22;2663;53.588;10.010;2023-11-21T15:47:14;7.30;99.90
5280;DHT22;2663;53.588;10.010;2023-11-21T15:49:41;7.20;99.90
5280;DHT22;2663;53.588;10.010;2023-11-21T15:52:08;7.20;99.90
5280;DHT22;2663;53.588;10.010;2023-11-21T15:54:37;7.20;99.90
5280;DHT22;2663;53.588;10.010;2023-11-21T15:57:04;7.30;99.90
5280;DHT22;2663;53.588;10.010;2023-11-21T15:59:32;7.40;99.90
5280;DHT22;2663;53.588;10.010;2023-11-21T16:02:00;7.40;99.90
5280;DHT22;2663;53.588;10.010;2023-11-21T16:04:27;7.40;99.90
5280;DHT22;2663;53.588;10.010;2023-11-21T16:06:55;7.40;99.90
5280;DHT22;2663;53.588;10.010;2023-11-21T16:09:21;7.40;99.90
5280;DHT22;2663;53.588;10.010;2023-11-21T16:11:50;7.50;99.90
5280;DHT22;2663;53.588;10.010;2023-11-21T16:14:19;7.40;99.90
5280;DHT22;2663;53.588;10.010;2023-11-21T16:16:52;7.50;99.90